sensor_id;sensor_type;location;lat;lon;timestamp;P1;durP1;ratioP1;P2;durP2;ratioP2
8626;SDS011;4351;51.422;6.794;2022-09-09T00:02:01;2.00;;;0.73;;
8626;SDS011;4351;51.422;6.794;2022-09-09T00:04:37;4.43;;;0.83;;
8626;SDS011;4351;51.422;6.794;2022-09-09T00:07:09;2.73;;;0.80;;
8626;SDS011;4351;51.422;6.794;2022-09-09T00:09:41;2.60;;;0.77;;
8626;SDS011;4351;51.422;6.794;2022-09-09T00:12:16;2.23;;;1.00;;
8626;SDS011;4351;51.422;6.794;2022-09-09T00:14:52;2.97;;;0.93;;
8626;SDS011;4351;51.422;6.794;2022-09-09T00:17:26;2.80;;;0.83;;
8626;SDS011;4351;51.422;6.794;2022-09-09T00:20:05;4.70;;;1.00;;
8626;SDS011;4351;51.422;6.794;2022-09-09T00:22:40;3.73;;;1.27;;
8626;SDS011;4351;51.422;6.794;2022-09-09T00:25:17;2.17;;;0.90;;
8626;SDS011;4351;51.422;6.794;2022-09-09T00:27:51;2.77;;;0.90;;
8626;SDS011;4351;51.422;6.794;2022-09-09T00:30:22;1.63;;;0.90;;
8626;SDS011;4351;51.422;6.794;2022-09-09T00:32:53;3.17;;;0.90;;
8626;SDS011;4351;51.422;6.794;2022-09-09T00:35:27;4.33;;;1.00;;
8626;SDS011;4351;51.422;6.794;2022-09-09T00:37:58;5.07;;;1.03;;
8626;SDS011;4351;51.422;6.794;2022-09-09T00:40:32;1.97;;;1.00;;
8626;SDS011;4351;51.422;6.794;2022-09-09T00:43:09;1.97;;;0.90;;
8626;SDS011;4351;51.422;6.794;2022-09-09T00:45:59;3.13;;;1.00;;
8626;SDS011;4351;51.422;6.794;2022-09-09T00:48:44;3.50;;;1.00;;
8626;SDS011;4351;51.422;6.794;2022-09-09T00:51:22;1.73;;;0.90;;
8626;SDS011;4351;51.422;6.794;2022-09-09T00:56:52;3.43;;;1.27;;
8626;SDS011;4351;51.422;6.794;2022-09-09T00:59:28;2.80;;;1.20;;
8626;SDS011;4351;51.422;6.794;2022-09-09T01:02:04;3.10;;;1.20;;
8626;SDS011;4351;51.422;6.794;2022-09-09T01:04:41;3.97;;;1.30;;
8626;SDS011;4351;51.422;6.794;2022-09-09T01:07:12;5.27;;;1.20;;
8626;SDS011;4351;51.422;6.794;2022-09-09T01:09:50;2.63;;;1.10;;
8626;SDS011;4351;51.422;6.794;2022-09-09T01:12:24;2.80;;;1.00;;
8626;SDS011;4351;51.422;6.794;2022-09-09T01:15:00;4.40;;;1.20;;
8626;SDS011;4351;51.422;6.794;2022-09-09T01:17:46;3.13;;;1.00;;
8626;SDS011;4351;51.422;6.794;2022-09-09T01:20:22;2.00;;;1.10;;
8626;SDS011;4351;51.422;6.794;2022-09-09T01:23:10;2.33;;;1.37;;
8626;SDS011;4351;51.422;6.794;2022-09-09T01:26:11;2.10;;;1.07;;
8626;SDS011;4351;51.422;6.794;2022-09-09T01:28:48;1.93;;;1.00;;
8626;SDS011;4351;51.422;6.794;2022-09-09T01:31:23;3.00;;;1.30;;
8626;SDS011;4351;51.422;6.794;2022-09-09T01:33:56;4.83;;;1.70;;
8626;SDS011;4351;51.422;6.794;2022-09-09T01:36:28;4.00;;;1.57;;
8626;SDS011;4351;51.422;6.794;2022-09-09T01:39:01;2.63;;;1.30;;
8626;SDS011;4351;51.422;6.794;2022-09-09T01:41:32;2.80;;;1.30;;
8626;SDS011;4351;51.422;6.794;2022-09-09T01:44:07;5.40;;;1.50;;
8626;SDS011;4351;51.422;6.794;2022-09-09T01:46:39;2.50;;;1.53;;
8626;SDS011;4351;51.422;6.794;2022-09-09T01:49:16;2.53;;;1.30;;
8626;SDS011;4351;51.422;6.794;2022-09-09T01:51:46;4.13;;;1.60;;
8626;SDS011;4351;51.422;6.794;2022-09-09T01:54:26;3.67;;;1.30;;
8626;SDS011;4351;51.422;6.794;2022-09-09T01:57:03;6.87;;;1.60;;
8626;SDS011;4351;51.422;6.794;2022-09-09T01:59:49;3.90;;;1.60;;
8626;SDS011;4351;51.422;6.794;2022-09-09T02:02:26;3.00;;;1.77;;
8626;SDS011;4351;51.422;6.794;2022-09-09T02:05:11;5.17;;;1.67;;
8626;SDS011;4351;51.422;6.794;2022-09-09T02:07:46;9.67;;;2.33;;
8626;SDS011;4351;51.422;6.794;2022-09-09T02:10:28;5.97;;;2.20;;
8626;SDS011;4351;51.422;6.794;2022-09-09T02:13:14;5.50;;;2.30;;
8626;SDS011;4351;51.422;6.794;2022-09-09T02:15:47;6.03;;;2.27;;
8626;SDS011;4351;51.422;6.794;2022-09-09T02:18:21;4.67;;;2.20;;
8626;SDS011;4351;51.422;6.794;2022-09-09T02:20:54;5.57;;;2.17;;
8626;SDS011;4351;51.422;6.794;2022-09-09T02:23:25;5.57;;;2.30;;
8626;SDS011;4351;51.422;6.794;2022-09-09T02:25:55;3.83;;;2.10;;
8626;SDS011;4351;51.422;6.794;2022-09-09T02:28:28;6.33;;;2.03;;
8626;SDS011;4351;51.422;6.794;2022-09-09T02:31:00;4.10;;;1.87;;
8626;SDS011;4351;51.422;6.794;2022-09-09T02:33:37;3.33;;;1.70;;
8626;SDS011;4351;51.422;6.794;2022-09-09T02:36:10;5.97;;;2.10;;
8626;SDS011;4351;51.422;6.794;2022-09-09T02:38:45;3.57;;;1.53;;
8626;SDS011;4351;51.422;6.794;2022-09-09T02:41:26;3.20;;;1.63;;
8626;SDS011;4351;51.422;6.794;2022-09-09T02:44:01;4.70;;;1.60;;
8626;SDS011;4351;51.422;6.794;2022-09-09T02:46:36;2.60;;;1.60;;
8626;SDS011;4351;51.422;6.794;2022-09-09T02:49:18;4.80;;;1.90;;
8626;SDS011;4351;51.422;6.794;2022-09-09T02:51:54;4.37;;;1.47;;
8626;SDS011;4351;51.422;6.794;2022-09-09T02:54:30;2.83;;;1.67;;
8626;SDS011;4351;51.422;6.794;2022-09-09T02:57:06;2.87;;;1.60;;
8626;SDS011;4351;51.422;6.794;2022-09-09T02:59:40;2.33;;;1.43;;
8626;SDS011;4351;51.422;6.794;2022-09-09T03:02:12;4.13;;;1.43;;
8626;SDS011;4351;51.422;6.794;2022-09-09T03:04:45;3.20;;;1.57;;
8626;SDS011;4351;51.422;6.794;2022-09-09T03:07:18;3.40;;;1.53;;
8626;SDS011;4351;51.422;6.794;2022-09-09T03:09:51;3.73;;;1.80;;
8626;SDS011;4351;51.422;6.794;2022-09-09T03:12:24;2.83;;;1.27;;
8626;SDS011;4351;51.422;6.794;2022-09-09T03:14:54;4.77;;;1.77;;
8626;SDS011;4351;51.422;6.794;2022-09-09T03:17:23;3.07;;;1.67;;
8626;SDS011;4351;51.422;6.794;2022-09-09T03:19:56;4.43;;;1.60;;
8626;SDS011;4351;51.422;6.794;2022-09-09T03:22:25;2.87;;;1.70;;
8626;SDS011;4351;51.422;6.794;2022-09-09T03:24:56;5.87;;;1.80;;
8626;SDS011;4351;51.422;6.794;2022-09-09T03:27:24;4.70;;;1.60;;
8626;SDS011;4351;51.422;6.794;2022-09-09T03:29:56;4.53;;;1.63;;
8626;SDS011;4351;51.422;6.794;2022-09-09T03:32:24;4.13;;;1.70;;
8626;SDS011;4351;51.422;6.794;2022-09-09T03:34:55;4.70;;;1.70;;
8626;SDS011;4351;51.422;6.794;2022-09-09T03:37:25;4.30;;;1.50;;
8626;SDS011;4351;51.422;6.794;2022-09-09T03:39:53;3.30;;;1.57;;
8626;SDS011;4351;51.422;6.794;2022-09-09T03:42:22;3.60;;;1.57;;
8626;SDS011;4351;51.422;6.794;2022-09-09T03:44:54;6.50;;;1.63;;
8626;SDS011;4351;51.422;6.794;2022-09-09T03:47:24;3.37;;;1.67;;
8626;SDS011;4351;51.422;6.794;2022-09-09T03:49:59;4.27;;;1.60;;
8626;SDS011;4351;51.422;6.794;2022-09-09T03:52:28;5.93;;;2.03;;
8626;SDS011;4351;51.422;6.794;2022-09-09T03:54:57;5.10;;;1.80;;
8626;SDS011;4351;51.422;6.794;2022-09-09T03:57:26;4.00;;;1.83;;
8626;SDS011;4351;51.422;6.794;2022-09-09T03:59:58;4.57;;;1.93;;
8626;SDS011;4351;51.422;6.794;2022-09-09T04:02:31;4.13;;;1.93;;
8626;SDS011;4351;51.422;6.794;2022-09-09T04:04:59;3.13;;;1.47;;
8626;SDS011;4351;51.422;6.794;2022-09-09T04:07:28;5.27;;;2.60;;
8626;SDS011;4351;51.422;6.794;2022-09-09T04:09:56;4.87;;;2.00;;
8626;SDS011;4351;51.422;6.794;2022-09-09T04:12:24;2.70;;;1.40;;
8626;SDS011;4351;51.422;6.794;2022-09-09T04:14:53;4.40;;;1.67;;
8626;SDS011;4351;51.422;6.794;2022-09-09T04:17:22;5.20;;;2.00;;
8626;SDS011;4351;51.422;6.794;2022-09-09T04:19:51;5.10;;;2.00;;
8626;SDS011;4351;51.422;6.794;2022-09-09T04:22:20;5.43;;;2.30;;
8626;SDS011;4351;51.422;6.794;2022-09-09T04:24:49;4.50;;;1.80;;
8626;SDS011;4351;51.422;6.794;2022-09-09T04:27:19;3.87;;;2.00;;
8626;SDS011;4351;51.422;6.794;2022-09-09T04:29:47;6.30;;;2.10;;
8626;SDS011;4351;51.422;6.794;2022-09-09T04:32:15;4.53;;;2.00;;
8626;SDS011;4351;51.422;6.794;2022-09-09T04:34:46;6.97;;;2.07;;
8626;SDS011;4351;51.422;6.794;2022-09-09T04:37:15;5.80;;;1.90;;
8626;SDS011;4351;51.422;6.794;2022-09-09T04:39:43;3.07;;;1.80;;
8626;SDS011;4351;51.422;6.794;2022-09-09T04:42:12;3.30;;;1.70;;
8626;SDS011;4351;51.422;6.794;2022-09-09T04:44:41;4.53;;;1.50;;
8626;SDS011;4351;51.422;6.794;2022-09-09T04:47:10;6.90;;;2.23;;
8626;SDS011;4351;51.422;6.794;2022-09-09T04:49:41;7.17;;;1.80;;
8626;SDS011;4351;51.422;6.794;2022-09-09T04:52:11;6.10;;;1.80;;
8626;SDS011;4351;51.422;6.794;2022-09-09T04:54:39;2.97;;;1.70;;
8626;SDS011;4351;51.422;6.794;2022-09-09T04:57:07;5.77;;;1.87;;
8626;SDS011;4351;51.422;6.794;2022-09-09T04:59:44;6.13;;;2.00;;
8626;SDS011;4351;51.422;6.794;2022-09-09T05:02:13;5.50;;;2.10;;
8626;SDS011;4351;51.422;6.794;2022-09-09T05:04:42;4.23;;;1.70;;
8626;SDS011;4351;51.422;6.794;2022-09-09T05:07:11;4.03;;;1.70;;
8626;SDS011;4351;51.422;6.794;2022-09-09T05:09:40;4.63;;;1.83;;
8626;SDS011;4351;51.422;6.794;2022-09-09T05:12:09;4.70;;;2.07;;
8626;SDS011;4351;51.422;6.794;2022-09-09T05:14:42;4.97;;;1.90;;
8626;SDS011;4351;51.422;6.794;2022-09-09T05:17:11;7.27;;;2.07;;
8626;SDS011;4351;51.422;6.794;2022-09-09T05:19:39;6.07;;;2.23;;
8626;SDS011;4351;51.422;6.794;2022-09-09T05:22:08;4.50;;;1.97;;
8626;SDS011;4351;51.422;6.794;2022-09-09T05:24:45;5.90;;;2.00;;
8626;SDS011;4351;51.422;6.794;2022-09-09T05:27:14;5.53;;;2.40;;
8626;SDS011;4351;51.422;6.794;2022-09-09T05:29:42;6.03;;;2.10;;
8626;SDS011;4351;51.422;6.794;2022-09-09T05:32:12;6.20;;;2.10;;
8626;SDS011;4351;51.422;6.794;2022-09-09T05:34:44;6.30;;;2.10;;
8626;SDS011;4351;51.422;6.794;2022-09-09T05:37:14;8.20;;;2.60;;
8626;SDS011;4351;51.422;6.794;2022-09-09T05:39:43;6.67;;;2.20;;
8626;SDS011;4351;51.422;6.794;2022-09-09T05:42:13;7.30;;;2.23;;
8626;SDS011;4351;51.422;6.794;2022-09-09T05:44:43;8.70;;;2.23;;
8626;SDS011;4351;51.422;6.794;2022-09-09T05:47:11;7.87;;;2.80;;
8626;SDS011;4351;51.422;6.794;2022-09-09T05:49:41;5.77;;;2.17;;
8626;SDS011;4351;51.422;6.794;2022-09-09T05:52:09;5.37;;;2.57;;
8626;SDS011;4351;51.422;6.794;2022-09-09T05:54:38;6.50;;;2.37;;
8626;SDS011;4351;51.422;6.794;2022-09-09T05:57:08;5.00;;;2.20;;
8626;SDS011;4351;51.422;6.794;2022-09-09T05:59:38;6.33;;;2.23;;
8626;SDS011;4351;51.422;6.794;2022-09-09T06:02:07;7.50;;;2.47;;
8626;SDS011;4351;51.422;6.794;2022-09-09T06:04:36;6.23;;;2.03;;
8626;SDS011;4351;51.422;6.794;2022-09-09T06:07:05;5.87;;;2.20;;
8626;SDS011;4351;51.422;6.794;2022-09-09T06:09:34;7.17;;;2.30;;
8626;SDS011;4351;51.422;6.794;2022-09-09T06:12:02;7.80;;;2.50;;
8626;SDS011;4351;51.422;6.794;2022-09-09T06:14:33;5.33;;;2.17;;
8626;SDS011;4351;51.422;6.794;2022-09-09T06:17:03;6.27;;;2.20;;
8626;SDS011;4351;51.422;6.794;2022-09-09T06:19:31;7.23;;;2.57;;
8626;SDS011;4351;51.422;6.794;2022-09-09T06:22:01;6.73;;;2.40;;
8626;SDS011;4351;51.422;6.794;2022-09-09T06:24:32;5.87;;;2.40;;
8626;SDS011;4351;51.422;6.794;2022-09-09T06:27:02;6.73;;;2.93;;
8626;SDS011;4351;51.422;6.794;2022-09-09T06:29:34;6.83;;;2.30;;
8626;SDS011;4351;51.422;6.794;2022-09-09T06:32:04;5.60;;;2.43;;
8626;SDS011;4351;51.422;6.794;2022-09-09T06:34:35;6.80;;;2.73;;
8626;SDS011;4351;51.422;6.794;2022-09-09T06:37:03;6.63;;;2.47;;
8626;SDS011;4351;51.422;6.794;2022-09-09T06:39:40;8.47;;;2.63;;
8626;SDS011;4351;51.422;6.794;2022-09-09T06:42:10;6.77;;;2.20;;
8626;SDS011;4351;51.422;6.794;2022-09-09T06:44:58;8.20;;;2.40;;
8626;SDS011;4351;51.422;6.794;2022-09-09T06:47:39;4.93;;;2.20;;
8626;SDS011;4351;51.422;6.794;2022-09-09T06:50:07;9.07;;;2.63;;
8626;SDS011;4351;51.422;6.794;2022-09-09T06:52:38;6.13;;;2.47;;
8626;SDS011;4351;51.422;6.794;2022-09-09T06:55:08;5.37;;;2.67;;
8626;SDS011;4351;51.422;6.794;2022-09-09T06:57:37;6.30;;;2.60;;
8626;SDS011;4351;51.422;6.794;2022-09-09T07:00:11;7.93;;;2.73;;
8626;SDS011;4351;51.422;6.794;2022-09-09T07:02:42;9.03;;;2.60;;
8626;SDS011;4351;51.422;6.794;2022-09-09T07:05:12;9.27;;;2.33;;
8626;SDS011;4351;51.422;6.794;2022-09-09T07:07:44;6.20;;;2.40;;
8626;SDS011;4351;51.422;6.794;2022-09-09T07:10:14;7.53;;;2.10;;
8626;SDS011;4351;51.422;6.794;2022-09-09T07:12:44;5.47;;;1.83;;
8626;SDS011;4351;51.422;6.794;2022-09-09T07:15:13;6.07;;;1.90;;
8626;SDS011;4351;51.422;6.794;2022-09-09T07:17:45;7.00;;;2.10;;
8626;SDS011;4351;51.422;6.794;2022-09-09T07:20:15;6.43;;;2.03;;
8626;SDS011;4351;51.422;6.794;2022-09-09T07:22:54;5.43;;;1.90;;
8626;SDS011;4351;51.422;6.794;2022-09-09T07:25:25;5.07;;;1.80;;
8626;SDS011;4351;51.422;6.794;2022-09-09T07:27:56;8.97;;;2.27;;
8626;SDS011;4351;51.422;6.794;2022-09-09T07:30:24;9.40;;;1.67;;
8626;SDS011;4351;51.422;6.794;2022-09-09T07:32:56;9.73;;;2.20;;
8626;SDS011;4351;51.422;6.794;2022-09-09T07:35:26;6.30;;;2.17;;
8626;SDS011;4351;51.422;6.794;2022-09-09T07:37:54;7.20;;;2.23;;
8626;SDS011;4351;51.422;6.794;2022-09-09T07:40:23;8.63;;;2.20;;
8626;SDS011;4351;51.422;6.794;2022-09-09T07:42:52;10.10;;;2.07;;
8626;SDS011;4351;51.422;6.794;2022-09-09T07:45:20;5.60;;;1.70;;
8626;SDS011;4351;51.422;6.794;2022-09-09T07:47:49;6.97;;;1.90;;
8626;SDS011;4351;51.422;6.794;2022-09-09T07:50:21;6.20;;;1.73;;
8626;SDS011;4351;51.422;6.794;2022-09-09T07:52:50;10.90;;;1.70;;
8626;SDS011;4351;51.422;6.794;2022-09-09T07:55:19;4.60;;;1.40;;
8626;SDS011;4351;51.422;6.794;2022-09-09T07:57:48;5.87;;;1.50;;
8626;SDS011;4351;51.422;6.794;2022-09-09T08:00:19;5.80;;;1.60;;
8626;SDS011;4351;51.422;6.794;2022-09-09T08:02:52;8.03;;;1.70;;
8626;SDS011;4351;51.422;6.794;2022-09-09T08:05:23;5.40;;;1.70;;
8626;SDS011;4351;51.422;6.794;2022-09-09T08:07:52;4.90;;;1.80;;
8626;SDS011;4351;51.422;6.794;2022-09-09T08:10:20;8.47;;;1.70;;
8626;SDS011;4351;51.422;6.794;2022-09-09T08:12:50;5.97;;;1.50;;
8626;SDS011;4351;51.422;6.794;2022-09-09T08:15:38;6.40;;;1.60;;
8626;SDS011;4351;51.422;6.794;2022-09-09T08:18:08;5.50;;;1.80;;
8626;SDS011;4351;51.422;6.794;2022-09-09T08:20:38;4.57;;;1.87;;
8626;SDS011;4351;51.422;6.794;2022-09-09T08:23:07;7.40;;;1.77;;
8626;SDS011;4351;51.422;6.794;2022-09-09T08:25:36;8.10;;;1.80;;
8626;SDS011;4351;51.422;6.794;2022-09-09T08:28:04;5.17;;;1.30;;
8626;SDS011;4351;51.422;6.794;2022-09-09T08:30:33;5.97;;;1.50;;
8626;SDS011;4351;51.422;6.794;2022-09-09T08:33:01;7.47;;;1.60;;
8626;SDS011;4351;51.422;6.794;2022-09-09T08:35:29;8.90;;;1.50;;
8626;SDS011;4351;51.422;6.794;2022-09-09T08:38:01;5.00;;;1.23;;
8626;SDS011;4351;51.422;6.794;2022-09-09T08:40:36;9.67;;;1.63;;
8626;SDS011;4351;51.422;6.794;2022-09-09T08:43:13;6.93;;;1.60;;
8626;SDS011;4351;51.422;6.794;2022-09-09T08:45:46;4.87;;;1.30;;
8626;SDS011;4351;51.422;6.794;2022-09-09T08:48:29;5.53;;;1.50;;
8626;SDS011;4351;51.422;6.794;2022-09-09T08:51:11;7.73;;;1.63;;
8626;SDS011;4351;51.422;6.794;2022-09-09T08:53:48;5.67;;;1.60;;
8626;SDS011;4351;51.422;6.794;2022-09-09T08:56:26;6.47;;;1.33;;
8626;SDS011;4351;51.422;6.794;2022-09-09T08:59:00;6.60;;;1.57;;
8626;SDS011;4351;51.422;6.794;2022-09-09T09:01:41;8.73;;;1.50;;
8626;SDS011;4351;51.422;6.794;2022-09-09T09:04:28;7.10;;;1.50;;
8626;SDS011;4351;51.422;6.794;2022-09-09T09:07:08;7.30;;;1.60;;
8626;SDS011;4351;51.422;6.794;2022-09-09T09:09:49;4.53;;;1.50;;
8626;SDS011;4351;51.422;6.794;2022-09-09T09:12:28;5.57;;;1.40;;
8626;SDS011;4351;51.422;6.794;2022-09-09T09:15:11;4.43;;;1.37;;
8626;SDS011;4351;51.422;6.794;2022-09-09T09:17:45;5.50;;;1.30;;
8626;SDS011;4351;51.422;6.794;2022-09-09T09:20:15;6.27;;;1.57;;
8626;SDS011;4351;51.422;6.794;2022-09-09T09:22:47;4.70;;;1.33;;
8626;SDS011;4351;51.422;6.794;2022-09-09T09:25:21;4.67;;;1.23;;
8626;SDS011;4351;51.422;6.794;2022-09-09T09:27:52;5.20;;;1.20;;
8626;SDS011;4351;51.422;6.794;2022-09-09T09:30:29;5.73;;;1.27;;
8626;SDS011;4351;51.422;6.794;2022-09-09T09:33:08;8.87;;;1.93;;
8626;SDS011;4351;51.422;6.794;2022-09-09T09:35:50;6.13;;;1.57;;
8626;SDS011;4351;51.422;6.794;2022-09-09T09:38:21;6.10;;;1.60;;
8626;SDS011;4351;51.422;6.794;2022-09-09T09:41:13;4.27;;;1.33;;
8626;SDS011;4351;51.422;6.794;2022-09-09T09:43:41;6.30;;;1.30;;
8626;SDS011;4351;51.422;6.794;2022-09-09T09:46:19;8.20;;;1.50;;
8626;SDS011;4351;51.422;6.794;2022-09-09T10:18:36;2.60;;;1.00;;
8626;SDS011;4351;51.422;6.794;2022-09-09T10:21:32;2.93;;;0.93;;
8626;SDS011;4351;51.422;6.794;2022-09-09T10:25:53;3.93;;;1.10;;
8626;SDS011;4351;51.422;6.794;2022-09-09T10:28:46;3.67;;;1.03;;
8626;SDS011;4351;51.422;6.794;2022-09-09T10:32:07;8.03;;;1.10;;
8626;SDS011;4351;51.422;6.794;2022-09-09T10:35:10;4.90;;;1.13;;
8626;SDS011;4351;51.422;6.794;2022-09-09T10:40:38;3.90;;;1.13;;
8626;SDS011;4351;51.422;6.794;2022-09-09T10:45:59;4.80;;;1.20;;
8626;SDS011;4351;51.422;6.794;2022-09-09T10:48:56;7.00;;;1.20;;
8626;SDS011;4351;51.422;6.794;2022-09-09T10:51:54;6.53;;;1.23;;
8626;SDS011;4351;51.422;6.794;2022-09-09T10:54:35;4.40;;;1.10;;
8626;SDS011;4351;51.422;6.794;2022-09-09T10:57:16;3.47;;;0.87;;
8626;SDS011;4351;51.422;6.794;2022-09-09T10:59:58;2.80;;;1.10;;
8626;SDS011;4351;51.422;6.794;2022-09-09T11:02:39;4.63;;;1.00;;
8626;SDS011;4351;51.422;6.794;2022-09-09T11:05:24;4.33;;;1.00;;
8626;SDS011;4351;51.422;6.794;2022-09-09T11:16:23;7.43;;;1.23;;
8626;SDS011;4351;51.422;6.794;2022-09-09T11:19:10;5.47;;;1.00;;
8626;SDS011;4351;51.422;6.794;2022-09-09T11:21:59;5.07;;;1.40;;
8626;SDS011;4351;51.422;6.794;2022-09-09T11:31:44;4.13;;;1.30;;
8626;SDS011;4351;51.422;6.794;2022-09-09T11:37:37;2.83;;;1.00;;
8626;SDS011;4351;51.422;6.794;2022-09-09T11:40:47;3.60;;;0.80;;
8626;SDS011;4351;51.422;6.794;2022-09-09T11:44:20;2.90;;;0.90;;
8626;SDS011;4351;51.422;6.794;2022-09-09T11:47:21;4.70;;;1.20;;
8626;SDS011;4351;51.422;6.794;2022-09-09T11:50:06;3.67;;;0.93;;
8626;SDS011;4351;51.422;6.794;2022-09-09T11:52:42;2.73;;;1.20;;
8626;SDS011;4351;51.422;6.794;2022-09-09T11:55:24;5.13;;;1.53;;
8626;SDS011;4351;51.422;6.794;2022-09-09T11:57:57;2.43;;;0.53;;
8626;SDS011;4351;51.422;6.794;2022-09-09T12:00:33;6.33;;;1.30;;
8626;SDS011;4351;51.422;6.794;2022-09-09T12:03:04;1.63;;;0.80;;
8626;SDS011;4351;51.422;6.794;2022-09-09T12:05:40;3.53;;;0.90;;
8626;SDS011;4351;51.422;6.794;2022-09-09T12:08:16;2.40;;;0.63;;
8626;SDS011;4351;51.422;6.794;2022-09-09T12:10:53;4.40;;;0.90;;
8626;SDS011;4351;51.422;6.794;2022-09-09T12:13:24;5.50;;;0.97;;
8626;SDS011;4351;51.422;6.794;2022-09-09T12:15:54;3.87;;;0.80;;
8626;SDS011;4351;51.422;6.794;2022-09-09T12:18:25;2.50;;;0.70;;
8626;SDS011;4351;51.422;6.794;2022-09-09T12:21:02;2.13;;;0.73;;
8626;SDS011;4351;51.422;6.794;2022-09-09T12:23:38;2.13;;;1.00;;
8626;SDS011;4351;51.422;6.794;2022-09-09T12:26:18;2.60;;;0.70;;
8626;SDS011;4351;51.422;6.794;2022-09-09T12:28:58;3.83;;;0.70;;
8626;SDS011;4351;51.422;6.794;2022-09-09T12:31:38;1.70;;;0.70;;
8626;SDS011;4351;51.422;6.794;2022-09-09T12:34:14;2.07;;;0.70;;
8626;SDS011;4351;51.422;6.794;2022-09-09T12:36:45;3.10;;;0.80;;
8626;SDS011;4351;51.422;6.794;2022-09-09T12:39:22;3.67;;;1.03;;
8626;SDS011;4351;51.422;6.794;2022-09-09T12:41:58;3.93;;;1.40;;
8626;SDS011;4351;51.422;6.794;2022-09-09T12:44:26;6.17;;;1.33;;
8626;SDS011;4351;51.422;6.794;2022-09-09T12:47:00;1.97;;;0.83;;
8626;SDS011;4351;51.422;6.794;2022-09-09T12:52:32;4.70;;;1.50;;
8626;SDS011;4351;51.422;6.794;2022-09-09T12:55:05;6.50;;;3.10;;
8626;SDS011;4351;51.422;6.794;2022-09-09T12:57:35;7.13;;;3.23;;
8626;SDS011;4351;51.422;6.794;2022-09-09T13:00:12;7.20;;;3.20;;
8626;SDS011;4351;51.422;6.794;2022-09-09T13:02:51;5.07;;;2.23;;
8626;SDS011;4351;51.422;6.794;2022-09-09T13:05:34;5.20;;;2.00;;
8626;SDS011;4351;51.422;6.794;2022-09-09T13:08:04;7.03;;;1.90;;
8626;SDS011;4351;51.422;6.794;2022-09-09T13:10:36;3.23;;;1.40;;
8626;SDS011;4351;51.422;6.794;2022-09-09T13:13:27;4.57;;;1.50;;
8626;SDS011;4351;51.422;6.794;2022-09-09T13:15:59;7.50;;;2.30;;
8626;SDS011;4351;51.422;6.794;2022-09-09T13:18:30;6.87;;;2.67;;
8626;SDS011;4351;51.422;6.794;2022-09-09T13:21:01;8.87;;;3.23;;
8626;SDS011;4351;51.422;6.794;2022-09-09T13:23:31;8.57;;;3.13;;
8626;SDS011;4351;51.422;6.794;2022-09-09T13:26:04;7.37;;;2.90;;
8626;SDS011;4351;51.422;6.794;2022-09-09T13:28:36;6.17;;;2.40;;
8626;SDS011;4351;51.422;6.794;2022-09-09T13:31:05;5.83;;;2.10;;
8626;SDS011;4351;51.422;6.794;2022-09-09T13:33:46;4.00;;;1.80;;
8626;SDS011;4351;51.422;6.794;2022-09-09T13:36:15;4.50;;;1.83;;
8626;SDS011;4351;51.422;6.794;2022-09-09T13:38:52;5.50;;;1.87;;
8626;SDS011;4351;51.422;6.794;2022-09-09T13:41:24;3.93;;;1.80;;
8626;SDS011;4351;51.422;6.794;2022-09-09T13:43:57;6.07;;;1.67;;
8626;SDS011;4351;51.422;6.794;2022-09-09T13:46:31;4.97;;;1.53;;
8626;SDS011;4351;51.422;6.794;2022-09-09T13:49:19;4.67;;;1.53;;
8626;SDS011;4351;51.422;6.794;2022-09-09T13:51:50;4.10;;;1.53;;
8626;SDS011;4351;51.422;6.794;2022-09-09T13:54:20;3.87;;;1.50;;
8626;SDS011;4351;51.422;6.794;2022-09-09T13:56:53;6.27;;;1.90;;
8626;SDS011;4351;51.422;6.794;2022-09-09T13:59:21;3.93;;;1.73;;
8626;SDS011;4351;51.422;6.794;2022-09-09T14:02:03;4.77;;;1.83;;
8626;SDS011;4351;51.422;6.794;2022-09-09T14:04:32;5.70;;;1.93;;
8626;SDS011;4351;51.422;6.794;2022-09-09T14:07:01;4.87;;;1.97;;
8626;SDS011;4351;51.422;6.794;2022-09-09T14:09:31;5.60;;;1.50;;
8626;SDS011;4351;51.422;6.794;2022-09-09T14:12:03;3.23;;;1.40;;
8626;SDS011;4351;51.422;6.794;2022-09-09T14:14:31;4.00;;;1.20;;
8626;SDS011;4351;51.422;6.794;2022-09-09T14:16:59;4.10;;;1.30;;
8626;SDS011;4351;51.422;6.794;2022-09-09T14:19:33;2.73;;;1.00;;
8626;SDS011;4351;51.422;6.794;2022-09-09T14:22:01;2.00;;;1.00;;
8626;SDS011;4351;51.422;6.794;2022-09-09T14:24:30;1.60;;;0.90;;
8626;SDS011;4351;51.422;6.794;2022-09-09T14:26:58;4.27;;;1.30;;
8626;SDS011;4351;51.422;6.794;2022-09-09T14:29:28;3.37;;;1.20;;
8626;SDS011;4351;51.422;6.794;2022-09-09T14:31:56;5.07;;;1.20;;
8626;SDS011;4351;51.422;6.794;2022-09-09T14:34:27;5.63;;;1.13;;
8626;SDS011;4351;51.422;6.794;2022-09-09T14:36:56;3.03;;;1.40;;
8626;SDS011;4351;51.422;6.794;2022-09-09T14:39:27;1.80;;;0.97;;
8626;SDS011;4351;51.422;6.794;2022-09-09T14:41:56;5.93;;;1.40;;
8626;SDS011;4351;51.422;6.794;2022-09-09T14:44:24;4.23;;;1.00;;
8626;SDS011;4351;51.422;6.794;2022-09-09T14:46:54;2.37;;;0.67;;
8626;SDS011;4351;51.422;6.794;2022-09-09T14:49:22;1.10;;;0.47;;
8626;SDS011;4351;51.422;6.794;2022-09-09T14:51:50;2.47;;;0.70;;
8626;SDS011;4351;51.422;6.794;2022-09-09T14:54:18;1.47;;;0.60;;
8626;SDS011;4351;51.422;6.794;2022-09-09T14:56:48;3.23;;;0.83;;
8626;SDS011;4351;51.422;6.794;2022-09-09T14:59:16;2.37;;;0.80;;
8626;SDS011;4351;51.422;6.794;2022-09-09T15:01:45;1.27;;;0.63;;
8626;SDS011;4351;51.422;6.794;2022-09-09T15:04:14;1.93;;;0.70;;
8626;SDS011;4351;51.422;6.794;2022-09-09T15:06:43;2.00;;;0.70;;
8626;SDS011;4351;51.422;6.794;2022-09-09T15:09:14;2.00;;;0.87;;
8626;SDS011;4351;51.422;6.794;2022-09-09T15:11:43;3.27;;;1.00;;
8626;SDS011;4351;51.422;6.794;2022-09-09T15:14:11;3.07;;;1.40;;
8626;SDS011;4351;51.422;6.794;2022-09-09T15:16:39;8.83;;;2.33;;
8626;SDS011;4351;51.422;6.794;2022-09-09T15:19:08;4.57;;;1.50;;
8626;SDS011;4351;51.422;6.794;2022-09-09T15:21:38;4.20;;;1.60;;
8626;SDS011;4351;51.422;6.794;2022-09-09T15:24:06;3.23;;;1.30;;
8626;SDS011;4351;51.422;6.794;2022-09-09T15:26:35;3.27;;;1.30;;
8626;SDS011;4351;51.422;6.794;2022-09-09T15:29:05;5.97;;;1.33;;
8626;SDS011;4351;51.422;6.794;2022-09-09T15:31:33;3.57;;;1.20;;
8626;SDS011;4351;51.422;6.794;2022-09-09T15:34:02;4.80;;;1.70;;
8626;SDS011;4351;51.422;6.794;2022-09-09T15:36:33;6.17;;;1.90;;
8626;SDS011;4351;51.422;6.794;2022-09-09T15:39:04;6.23;;;2.37;;
8626;SDS011;4351;51.422;6.794;2022-09-09T15:41:33;6.17;;;1.83;;
8626;SDS011;4351;51.422;6.794;2022-09-09T15:44:02;8.17;;;1.70;;
8626;SDS011;4351;51.422;6.794;2022-09-09T15:46:31;3.20;;;1.10;;
8626;SDS011;4351;51.422;6.794;2022-09-09T15:49:04;3.80;;;1.60;;
8626;SDS011;4351;51.422;6.794;2022-09-09T15:51:36;3.00;;;1.10;;
8626;SDS011;4351;51.422;6.794;2022-09-09T15:54:11;3.73;;;1.00;;
8626;SDS011;4351;51.422;6.794;2022-09-09T15:56:43;7.20;;;1.10;;
8626;SDS011;4351;51.422;6.794;2022-09-09T15:59:13;4.60;;;1.00;;
8626;SDS011;4351;51.422;6.794;2022-09-09T16:01:41;3.07;;;1.00;;
8626;SDS011;4351;51.422;6.794;2022-09-09T16:04:10;4.13;;;0.97;;
8626;SDS011;4351;51.422;6.794;2022-09-09T16:06:39;4.73;;;1.67;;
8626;SDS011;4351;51.422;6.794;2022-09-09T16:09:07;4.10;;;2.53;;
8626;SDS011;4351;51.422;6.794;2022-09-09T16:11:38;5.83;;;2.40;;
8626;SDS011;4351;51.422;6.794;2022-09-09T16:14:06;3.23;;;1.60;;
8626;SDS011;4351;51.422;6.794;2022-09-09T16:16:35;5.63;;;2.83;;
8626;SDS011;4351;51.422;6.794;2022-09-09T16:19:04;6.77;;;2.47;;
8626;SDS011;4351;51.422;6.794;2022-09-09T16:21:36;6.07;;;2.90;;
8626;SDS011;4351;51.422;6.794;2022-09-09T16:24:06;5.13;;;2.67;;
8626;SDS011;4351;51.422;6.794;2022-09-09T16:26:38;7.20;;;3.80;;
8626;SDS011;4351;51.422;6.794;2022-09-09T16:29:08;4.67;;;2.90;;
8626;SDS011;4351;51.422;6.794;2022-09-09T16:31:36;2.87;;;1.40;;
8626;SDS011;4351;51.422;6.794;2022-09-09T16:34:06;3.47;;;1.90;;
8626;SDS011;4351;51.422;6.794;2022-09-09T16:36:35;5.07;;;2.63;;
8626;SDS011;4351;51.422;6.794;2022-09-09T16:39:06;4.57;;;2.23;;
8626;SDS011;4351;51.422;6.794;2022-09-09T16:41:38;2.73;;;1.73;;
8626;SDS011;4351;51.422;6.794;2022-09-09T16:44:08;3.80;;;2.40;;
8626;SDS011;4351;51.422;6.794;2022-09-09T16:46:40;9.83;;;4.70;;
8626;SDS011;4351;51.422;6.794;2022-09-09T16:49:10;7.07;;;3.77;;
8626;SDS011;4351;51.422;6.794;2022-09-09T16:51:41;8.33;;;3.63;;
8626;SDS011;4351;51.422;6.794;2022-09-09T16:54:11;8.00;;;3.93;;
8626;SDS011;4351;51.422;6.794;2022-09-09T16:56:42;7.10;;;4.10;;